createdAt,value
2018-05-16T04:30:37.770Z,1009.21
2018-05-16T04:31:07.693Z,1009.20
2018-05-16T04:32:15.447Z,1009.22
2018-05-16T04:32:45.445Z,1009.25
2018-05-16T04:33:53.133Z,1009.27
2018-05-16T04:34:23.083Z,1009.29
2018-05-16T04:35:30.880Z,1009.28
2018-05-16T04:36:00.780Z,1009.29
2018-05-16T04:37:08.528Z,1009.28
2018-05-16T04:37:38.481Z,1009.32
2018-05-16T04:38:46.226Z,1009.31
2018-05-16T04:39:16.175Z,1009.32
2018-05-16T04:40:23.955Z,1009.33
2018-05-16T04:40:53.871Z,1009.31
2018-05-16T04:42:01.627Z,1009.28
2018-05-16T04:42:31.571Z,1009.28
2018-05-16T04:43:39.330Z,1009.26
2018-05-16T04:44:09.273Z,1009.27
2018-05-16T04:45:17.032Z,1009.27
2018-05-16T04:45:46.983Z,1009.30
2018-05-16T04:46:54.747Z,1009.30
2018-05-16T04:47:24.682Z,1009.29
2018-05-16T04:48:32.425Z,1009.31
2018-05-16T04:49:02.366Z,1009.31
2018-05-16T04:50:10.136Z,1009.29
2018-05-16T04:50:40.077Z,1009.28
2018-05-16T04:51:47.848Z,1009.29
2018-05-16T04:52:17.773Z,1009.30
2018-05-16T04:53:25.522Z,1009.31
2018-05-16T04:53:55.471Z,1009.33
2018-05-16T04:55:03.216Z,1009.33
2018-05-16T04:55:33.170Z,1009.35
2018-05-16T04:56:40.945Z,1009.30
2018-05-16T04:57:10.864Z,1009.28
2018-05-16T04:58:18.620Z,1009.21
2018-05-16T04:58:48.555Z,1009.25
2018-05-16T04:59:56.310Z,1009.23
2018-05-16T05:00:26.262Z,1009.23
2018-05-16T05:01:34.013Z,1009.22
2018-05-16T05:02:03.957Z,1009.20
2018-05-16T05:03:11.734Z,1009.26
2018-05-16T05:03:41.657Z,1009.27
2018-05-16T05:04:49.473Z,1009.28
2018-05-16T05:05:19.355Z,1009.34
2018-05-16T05:06:27.142Z,1009.33
2018-05-16T05:06:57.055Z,1009.35
2018-05-16T05:08:04.814Z,1009.31
2018-05-16T05:08:34.749Z,1009.29
2018-05-16T05:09:42.508Z,1009.30
2018-05-16T05:10:12.454Z,1009.28
2018-05-16T05:11:20.207Z,1009.34
2018-05-16T05:11:50.241Z,1009.33
2018-05-16T05:12:57.923Z,1009.34
2018-05-16T05:13:27.846Z,1009.36
2018-05-16T05:14:35.603Z,1009.41
2018-05-16T05:15:05.549Z,1009.37
2018-05-16T05:16:13.299Z,1009.36
2018-05-16T05:16:43.246Z,1009.36
2018-05-16T05:17:51.026Z,1009.38
2018-05-16T05:18:21.052Z,1009.39
2018-05-16T05:19:28.692Z,1009.41
2018-05-16T05:19:58.640Z,1009.40
2018-05-16T05:21:06.397Z,1009.42
2018-05-16T05:21:36.337Z,1009.42
2018-05-16T05:22:44.093Z,1009.43
2018-05-16T05:23:14.035Z,1009.36
2018-05-16T05:24:21.818Z,1009.34
2018-05-16T05:24:51.733Z,1009.37
2018-05-16T05:25:59.494Z,1009.34
2018-05-16T05:26:29.431Z,1009.35
2018-05-16T05:27:37.201Z,1009.36
2018-05-16T05:28:07.140Z,1009.39
2018-05-16T05:29:14.915Z,1009.39
2018-05-16T05:29:44.844Z,1009.36
2018-05-16T05:30:52.594Z,1009.40
2018-05-16T05:31:22.543Z,1009.39
2018-05-16T05:32:30.298Z,1009.40
2018-05-16T05:33:00.246Z,1009.43
2018-05-16T05:34:08.026Z,1009.45
2018-05-16T05:34:37.944Z,1009.47
2018-05-16T05:35:45.697Z,1009.45
2018-05-16T05:36:15.637Z,1009.53
2018-05-16T05:37:23.400Z,1009.53
2018-05-16T05:37:53.347Z,1009.56
2018-05-16T05:39:01.094Z,1009.58
2018-05-16T05:39:31.039Z,1009.57
2018-05-16T05:40:38.811Z,1009.59
2018-05-16T05:41:08.742Z,1009.62
2018-05-16T05:42:16.489Z,1009.60
2018-05-16T05:42:46.442Z,1009.55
2018-05-16T05:43:54.188Z,1009.59
2018-05-16T05:44:24.147Z,1009.61
2018-05-16T05:45:32.109Z,1009.64
2018-05-16T05:46:02.043Z,1009.67
2018-05-16T05:47:09.798Z,1009.68
2018-05-16T05:47:39.735Z,1009.70
2018-05-16T05:48:47.488Z,1009.70
2018-05-16T05:49:17.508Z,1009.70
2018-05-16T05:50:25.219Z,1009.72
2018-05-16T05:50:55.156Z,1009.70
2018-05-16T05:52:02.904Z,1009.72
2018-05-16T05:52:32.840Z,1009.68
2018-05-16T05:53:40.606Z,1009.68
2018-05-16T05:54:10.561Z,1009.65
2018-05-16T05:55:18.308Z,1009.73
2018-05-16T05:55:48.248Z,1009.74
2018-05-16T05:56:56.028Z,1009.76
2018-05-16T05:57:25.954Z,1009.76
2018-05-16T05:58:33.711Z,1009.78
2018-05-16T05:59:03.650Z,1009.83
2018-05-16T06:00:11.457Z,1009.80
2018-05-16T06:00:41.358Z,1009.79
2018-05-16T06:01:49.138Z,1009.82
2018-05-16T06:02:19.055Z,1009.83
2018-05-16T06:03:26.814Z,1009.73
2018-05-16T06:03:56.759Z,1009.76
2018-05-16T06:05:04.523Z,1009.76
2018-05-16T06:05:34.465Z,1009.74
2018-05-16T06:06:42.220Z,1009.70
2018-05-16T06:07:12.172Z,1009.77
2018-05-16T06:08:19.935Z,1009.72
2018-05-16T06:08:49.872Z,1009.75
2018-05-16T06:09:57.629Z,1009.70
2018-05-16T06:10:27.569Z,1009.69
2018-05-16T06:11:35.330Z,1009.74
2018-05-16T06:12:05.282Z,1009.72
2018-05-16T06:13:13.056Z,1009.72
2018-05-16T06:13:42.996Z,1009.69
2018-05-16T06:14:50.745Z,1009.79
2018-05-16T06:15:20.680Z,1009.76
2018-05-16T06:16:28.436Z,1009.83
2018-05-16T06:16:58.392Z,1009.81
2018-05-16T06:18:06.143Z,1009.80
2018-05-16T06:18:36.098Z,1009.78
2018-05-16T06:19:43.953Z,1009.86
2018-05-16T06:20:13.798Z,1009.86
2018-05-16T06:21:21.554Z,1009.91
2018-05-16T06:21:51.510Z,1009.87
2018-05-16T06:22:59.268Z,1010.15
2018-05-16T06:23:29.208Z,1010.35
2018-05-16T06:24:37.004Z,1010.51
2018-05-16T06:25:06.918Z,1010.42
2018-05-16T06:26:14.689Z,1009.94
2018-05-16T06:26:44.629Z,1010.08
2018-05-16T06:27:52.385Z,1010.76
2018-05-16T06:28:22.333Z,1010.61
2018-05-16T06:29:30.102Z,1010.75
2018-05-16T06:30:00.047Z,1010.82
2018-05-16T06:31:07.825Z,1010.83
2018-05-16T06:31:37.762Z,1010.78
2018-05-16T06:32:45.535Z,1010.63
2018-05-16T06:33:15.474Z,1010.54
2018-05-16T06:34:23.240Z,1010.57
2018-05-16T06:34:53.189Z,1010.72
2018-05-16T06:36:00.985Z,1010.77
2018-05-16T06:36:30.912Z,1010.52
2018-05-16T06:37:38.685Z,1010.52
2018-05-16T06:38:08.634Z,1010.54
2018-05-16T06:39:16.421Z,1010.66
2018-05-16T06:39:46.352Z,1010.69
2018-05-16T06:40:54.117Z,1010.73
2018-05-16T06:41:24.073Z,1010.67
2018-05-16T06:42:31.867Z,1010.56
2018-05-16T06:43:01.784Z,1010.54
2018-05-16T06:44:09.554Z,1010.62
2018-05-16T06:44:39.497Z,1010.73
2018-05-16T06:45:47.353Z,1010.78
2018-05-16T06:46:17.221Z,1010.79
2018-05-16T06:47:24.998Z,1010.74
2018-05-16T06:47:54.929Z,1010.74
2018-05-16T06:49:02.707Z,1010.70
2018-05-16T06:49:32.659Z,1010.63
2018-05-16T06:50:40.419Z,1010.19
2018-05-16T06:51:10.369Z,1010.04
2018-05-16T06:52:18.169Z,1010.18
2018-05-16T06:52:48.086Z,1010.16
2018-05-16T06:53:55.862Z,1010.33
2018-05-16T06:54:25.810Z,1010.17
2018-05-16T06:55:33.569Z,1010.04
2018-05-16T06:56:03.527Z,1009.99
2018-05-16T06:57:11.291Z,1010.01
2018-05-16T06:57:41.250Z,1009.97
2018-05-16T06:58:49.028Z,1009.99
2018-05-16T06:59:18.958Z,1010.02
2018-05-16T07:00:26.723Z,1009.96
2018-05-16T07:00:56.674Z,1009.96
2018-05-16T07:02:04.432Z,1009.95
2018-05-16T07:02:34.386Z,1009.93
2018-05-16T07:03:42.159Z,1009.94
2018-05-16T07:04:12.185Z,1009.99
2018-05-16T07:05:19.856Z,1009.93
2018-05-16T07:05:49.798Z,1009.91
2018-05-16T07:06:57.587Z,1009.91
2018-05-16T07:07:27.510Z,1009.89
2018-05-16T07:08:35.291Z,1009.97
2018-05-16T07:09:05.216Z,1009.96
2018-05-16T07:10:12.981Z,1009.95
2018-05-16T07:10:42.927Z,1009.98
2018-05-16T07:11:50.681Z,1009.98
2018-05-16T07:12:20.641Z,1010.05
2018-05-16T07:13:28.427Z,1010.10
2018-05-16T07:13:58.346Z,1010.09
2018-05-16T07:15:06.110Z,1010.13
2018-05-16T07:15:36.050Z,1010.14
2018-05-16T07:16:43.816Z,1010.21
2018-05-16T07:17:13.760Z,1010.20
2018-05-16T07:18:21.520Z,1010.25
2018-05-16T07:18:51.462Z,1010.28
2018-05-16T07:19:59.239Z,1010.24
2018-05-16T07:20:29.170Z,1010.26
2018-05-16T07:21:36.928Z,1010.31
2018-05-16T07:22:06.881Z,1010.30
2018-05-16T07:23:14.661Z,1010.28
2018-05-16T07:23:44.602Z,1010.28
2018-05-16T07:24:52.352Z,1010.24
2018-05-16T07:25:22.301Z,1010.23
2018-05-16T07:26:30.052Z,1010.22
2018-05-16T07:27:00.005Z,1010.22
2018-05-16T07:28:07.752Z,1010.24
2018-05-16T07:28:37.703Z,1010.22
2018-05-16T07:29:45.476Z,1010.25
2018-05-16T07:30:15.402Z,1010.21
2018-05-16T07:31:23.220Z,1010.27
2018-05-16T07:31:53.170Z,1010.25
2018-05-16T07:33:00.921Z,1010.33
2018-05-16T07:33:30.872Z,1010.32
2018-05-16T07:34:38.658Z,1010.32
2018-05-16T07:35:08.580Z,1010.30
2018-05-16T07:36:16.338Z,1010.28
2018-05-16T07:36:46.289Z,1010.27
2018-05-16T07:37:54.043Z,1010.33
2018-05-16T07:38:23.994Z,1010.36
2018-05-16T07:39:31.754Z,1010.41
2018-05-16T07:40:01.701Z,1010.41
2018-05-16T07:41:09.558Z,1010.38
2018-05-16T07:41:39.399Z,1010.41
2018-05-16T07:42:47.165Z,1010.42
2018-05-16T07:43:17.111Z,1010.44
2018-05-16T07:44:24.861Z,1010.46
2018-05-16T07:44:54.817Z,1010.50
2018-05-16T07:46:02.578Z,1010.48
2018-05-16T07:46:32.515Z,1010.48
2018-05-16T07:47:40.270Z,1010.51
2018-05-16T07:48:10.218Z,1010.53
2018-05-16T07:49:17.969Z,1010.50
2018-05-16T07:49:47.921Z,1010.51
2018-05-16T07:50:55.711Z,1010.55
2018-05-16T07:51:25.622Z,1010.54
2018-05-16T07:52:33.382Z,1010.57
2018-05-16T07:53:03.327Z,1010.61
2018-05-16T07:54:11.084Z,1010.66
2018-05-16T07:54:41.041Z,1010.62
2018-05-16T07:55:48.791Z,1010.70
2018-05-16T07:56:18.734Z,1010.73
2018-05-16T07:57:26.518Z,1010.75
2018-05-16T07:57:56.437Z,1010.76
2018-05-16T07:59:04.195Z,1010.72
2018-05-16T07:59:34.146Z,1010.74
2018-05-16T08:00:41.907Z,1010.78
2018-05-16T08:01:11.855Z,1010.79
2018-05-16T08:02:19.640Z,1010.77
2018-05-16T08:02:49.559Z,1010.74
2018-05-16T08:03:57.312Z,1010.81
2018-05-16T08:04:27.271Z,1010.78
2018-05-16T08:05:35.020Z,1010.77
2018-05-16T08:06:04.968Z,1010.84
2018-05-16T08:07:12.728Z,1010.81
2018-05-16T08:07:42.683Z,1010.82
2018-05-16T08:08:50.449Z,1010.83
2018-05-16T08:09:20.378Z,1010.77
2018-05-16T08:10:28.140Z,1010.74
2018-05-16T08:10:58.099Z,1010.78
2018-05-16T08:12:05.853Z,1010.79
2018-05-16T08:12:35.795Z,1010.73
2018-05-16T08:13:43.573Z,1010.77
2018-05-16T08:14:13.503Z,1010.73
2018-05-16T08:15:21.258Z,1010.72
2018-05-16T08:15:51.209Z,1010.72
2018-05-16T08:16:58.975Z,1010.70
2018-05-16T08:17:28.914Z,1010.69
2018-05-16T08:18:36.704Z,1010.71
2018-05-16T08:19:06.630Z,1010.74
2018-05-16T08:20:14.387Z,1010.75
2018-05-16T08:20:44.332Z,1010.80
2018-05-16T08:21:52.152Z,1010.72
2018-05-16T08:22:22.031Z,1010.67
2018-05-16T08:23:29.796Z,1010.71
2018-05-16T08:23:59.747Z,1010.69
2018-05-16T08:25:07.537Z,1010.76
2018-05-16T08:25:37.460Z,1010.76
2018-05-16T08:26:45.216Z,1010.70
2018-05-16T08:27:15.167Z,1010.68
2018-05-16T08:28:22.928Z,1010.62
2018-05-16T08:28:52.874Z,1010.62
2018-05-16T08:30:00.642Z,1010.62
2018-05-16T08:30:30.582Z,1010.66
2018-05-16T08:31:38.363Z,1010.66
2018-05-16T08:32:08.293Z,1011.02
2018-05-16T08:33:16.048Z,1010.75
2018-05-16T08:33:46.006Z,1010.66
2018-05-16T08:34:53.766Z,1010.72
2018-05-16T08:35:23.719Z,1010.84
2018-05-16T08:36:31.496Z,1010.75
2018-05-16T08:37:01.426Z,1010.75
2018-05-16T08:38:09.199Z,1010.77
2018-05-16T08:38:39.136Z,1010.80
2018-05-16T08:39:46.904Z,1010.76
2018-05-16T08:40:16.857Z,1010.86
2018-05-16T08:41:24.616Z,1010.84
2018-05-16T08:41:54.567Z,1010.78
2018-05-16T08:43:02.360Z,1010.76
2018-05-16T08:43:32.280Z,1010.71
2018-05-16T08:44:40.042Z,1010.73
2018-05-16T08:45:09.984Z,1010.70
2018-05-16T08:46:17.747Z,1010.71
2018-05-16T08:46:47.694Z,1010.70
2018-05-16T08:47:55.480Z,1010.68
2018-05-16T08:48:25.407Z,1010.64
2018-05-16T08:49:33.184Z,1010.62
2018-05-16T08:50:03.117Z,1010.65
2018-05-16T08:51:10.902Z,1010.65
2018-05-16T08:51:40.843Z,1010.62
2018-05-16T08:52:48.631Z,1010.63
2018-05-16T08:53:18.548Z,1010.65
2018-05-16T08:54:26.317Z,1010.61
2018-05-16T08:54:56.261Z,1010.65
2018-05-16T08:56:04.029Z,1010.66
2018-05-16T08:56:33.977Z,1010.67
2018-05-16T08:57:41.741Z,1010.66
2018-05-16T08:58:11.686Z,1010.65
2018-05-16T08:59:19.478Z,1010.54
2018-05-16T08:59:49.405Z,1010.50
2018-05-16T09:00:57.170Z,1010.51
2018-05-16T09:01:27.109Z,1010.53
2018-05-16T09:02:34.876Z,1010.52
2018-05-16T09:03:04.825Z,1010.54
2018-05-16T09:04:12.592Z,1010.64
2018-05-16T09:04:42.537Z,1010.60
2018-05-16T09:05:50.319Z,1010.65
2018-05-16T09:06:20.245Z,1010.66
2018-05-16T09:07:28.012Z,1010.59
2018-05-16T09:07:57.959Z,1010.62
2018-05-16T09:09:05.718Z,1010.56
2018-05-16T09:09:35.665Z,1010.55
2018-05-16T09:10:43.448Z,1010.53
2018-05-16T09:11:13.382Z,1010.64
2018-05-16T09:12:21.146Z,1010.61
2018-05-16T09:12:51.089Z,1010.60
2018-05-16T09:13:58.866Z,1010.55
2018-05-16T09:14:28.806Z,1010.57
2018-05-16T09:15:36.599Z,1010.55
2018-05-16T09:16:06.522Z,1010.61
2018-05-16T09:17:14.300Z,1010.58
2018-05-16T09:17:44.234Z,1010.53
2018-05-16T09:18:52.005Z,1010.55
2018-05-16T09:19:21.952Z,1010.58
2018-05-16T09:20:29.703Z,1010.54
2018-05-16T09:20:59.654Z,1010.55
2018-05-16T09:22:07.444Z,1010.53
2018-05-16T09:22:37.371Z,1010.52
2018-05-16T09:23:45.129Z,1010.56
2018-05-16T09:24:15.170Z,1010.52
2018-05-16T09:25:22.840Z,1010.57
2018-05-16T09:25:52.843Z,1010.56
2018-05-16T09:27:00.581Z,1010.51
2018-05-16T09:27:30.504Z,1010.54
2018-05-16T09:28:38.289Z,1010.47
2018-05-16T09:29:08.234Z,1010.53
2018-05-16T09:30:15.993Z,1010.47
2018-05-16T09:30:45.944Z,1010.46
2018-05-16T09:31:54.715Z,1010.51
2018-05-16T09:32:24.652Z,1010.41
2018-05-16T09:33:32.430Z,1010.42
2018-05-16T09:34:02.359Z,1010.46
2018-05-16T09:35:10.120Z,1010.50
2018-05-16T09:35:40.075Z,1010.54
2018-05-16T09:36:47.832Z,1010.50
2018-05-16T09:37:17.790Z,1010.55
2018-05-16T09:38:25.567Z,1010.58
2018-05-16T09:38:55.504Z,1010.57
2018-05-16T09:40:03.267Z,1010.57
2018-05-16T09:40:33.213Z,1010.56
2018-05-16T09:41:40.975Z,1010.55
2018-05-16T09:42:10.920Z,1010.56
2018-05-16T09:43:18.720Z,1010.57
2018-05-16T09:43:48.654Z,1010.52
2018-05-16T09:44:56.414Z,1010.53
2018-05-16T09:45:26.367Z,1010.58
2018-05-16T09:46:34.130Z,1010.62
2018-05-16T09:47:04.074Z,1010.59
2018-05-16T09:48:11.863Z,1010.60
2018-05-16T09:48:41.791Z,1010.54
2018-05-16T09:49:49.546Z,1010.54
2018-05-16T09:50:19.496Z,1010.55
2018-05-16T09:51:27.266Z,1010.55
2018-05-16T09:51:57.209Z,1010.54
2018-05-16T09:53:04.975Z,1010.53
2018-05-16T09:53:34.913Z,1010.53
2018-05-16T09:54:42.699Z,1010.57
2018-05-16T09:55:12.627Z,1010.60
2018-05-16T09:56:20.385Z,1010.59
2018-05-16T09:56:50.344Z,1010.67
2018-05-16T09:57:58.104Z,1010.67
2018-05-16T09:58:28.046Z,1010.56
2018-05-16T09:59:35.826Z,1010.60
2018-05-16T10:00:05.761Z,1010.60
2018-05-16T10:01:13.516Z,1010.61
2018-05-16T10:01:43.479Z,1010.64
2018-05-16T10:02:51.295Z,1010.63
2018-05-16T10:03:21.182Z,1010.62
2018-05-16T10:04:28.977Z,1010.63
2018-05-16T10:04:58.897Z,1010.61
2018-05-16T10:06:06.662Z,1010.68
2018-05-16T10:06:36.609Z,1010.68
2018-05-16T10:07:44.375Z,1010.66
2018-05-16T10:08:14.321Z,1010.67
2018-05-16T10:09:22.090Z,1010.68
2018-05-16T10:09:52.178Z,1010.71
2018-05-16T10:10:59.826Z,1010.68
2018-05-16T10:11:29.748Z,1010.67
2018-05-16T10:12:37.512Z,1010.73
2018-05-16T10:13:07.468Z,1010.69
2018-05-16T10:14:15.235Z,1010.69
2018-05-16T10:14:45.176Z,1010.69
2018-05-16T10:15:52.956Z,1010.71
2018-05-16T10:16:22.898Z,1010.71
2018-05-16T10:17:30.681Z,1010.69
2018-05-16T10:18:00.605Z,1010.72
2018-05-16T10:19:08.371Z,1010.71
2018-05-16T10:19:38.318Z,1010.72
2018-05-16T10:20:46.089Z,1010.66
2018-05-16T10:21:16.046Z,1010.66
2018-05-16T10:22:23.828Z,1010.68
2018-05-16T10:22:53.750Z,1010.69
2018-05-16T10:24:01.519Z,1010.77
2018-05-16T10:24:31.464Z,1010.77
2018-05-16T10:25:39.233Z,1010.76
2018-05-16T10:26:09.185Z,1010.76
2018-05-16T10:27:16.959Z,1010.76
2018-05-16T10:27:46.893Z,1010.76
2018-05-16T10:28:54.661Z,1010.76
2018-05-16T10:29:24.612Z,1010.76
2018-05-16T10:30:32.374Z,1010.76
2018-05-16T10:31:02.321Z,1010.78
2018-05-16T10:32:10.108Z,1010.78
2018-05-16T10:32:40.030Z,1010.80
2018-05-16T10:33:47.796Z,1010.79
2018-05-16T10:34:17.749Z,1010.68
2018-05-16T10:35:25.510Z,1010.70
2018-05-16T10:35:55.456Z,1010.70
2018-05-16T10:37:03.253Z,1010.67
2018-05-16T10:37:33.177Z,1010.70
2018-05-16T10:38:40.938Z,1010.72
2018-05-16T10:39:10.892Z,1010.75
2018-05-16T10:40:18.652Z,1010.73
2018-05-16T10:40:48.601Z,1010.77
2018-05-16T10:41:56.357Z,1010.76
2018-05-16T10:42:26.316Z,1010.74
2018-05-16T10:43:35.083Z,1010.73
2018-05-16T10:44:05.014Z,1010.69
2018-05-16T10:45:12.779Z,1010.68
2018-05-16T10:45:42.727Z,1010.70
2018-05-16T10:46:50.496Z,1010.72
2018-05-16T10:47:20.440Z,1010.75
2018-05-16T10:48:28.234Z,1010.71
2018-05-16T10:48:58.156Z,1010.70
2018-05-16T10:50:05.920Z,1010.75
2018-05-16T10:50:35.867Z,1010.74
2018-05-16T10:51:43.638Z,1010.73
2018-05-16T10:52:13.654Z,1010.72
2018-05-16T10:53:21.350Z,1010.68
2018-05-16T10:53:51.302Z,1010.69
2018-05-16T10:54:59.076Z,1010.71
2018-05-16T10:55:29.012Z,1010.68
2018-05-16T10:56:36.776Z,1010.66
2018-05-16T10:57:06.732Z,1010.61
2018-05-16T10:58:14.498Z,1010.72
2018-05-16T10:58:44.451Z,1010.68
2018-05-16T10:59:52.228Z,1010.65
2018-05-16T11:00:22.159Z,1010.66
2018-05-16T11:01:29.924Z,1010.60
2018-05-16T11:01:59.882Z,1010.60
2018-05-16T11:03:07.649Z,1010.61
2018-05-16T11:03:37.595Z,1010.65
2018-05-16T11:04:45.387Z,1010.67
2018-05-16T11:05:15.316Z,1010.63
2018-05-16T11:06:23.074Z,1010.71
2018-05-16T11:06:53.023Z,1010.61
2018-05-16T11:08:00.794Z,1010.60
2018-05-16T11:08:30.737Z,1010.61
2018-05-16T11:09:39.000Z,1010.60
2018-05-16T11:10:08.942Z,1010.61
2018-05-16T11:11:16.728Z,1010.60
2018-05-16T11:11:46.670Z,1010.57
2018-05-16T11:12:54.435Z,1010.62
2018-05-16T11:13:24.376Z,1010.63
2018-05-16T11:14:32.143Z,1010.61
2018-05-16T11:15:02.089Z,1010.59
2018-05-16T11:16:09.880Z,1010.57
2018-05-16T11:16:39.812Z,1010.55
2018-05-16T11:17:48.068Z,1010.55
2018-05-16T11:18:18.019Z,1010.54
2018-05-16T11:19:25.773Z,1010.54
2018-05-16T11:19:55.762Z,1010.45
2018-05-16T11:21:03.640Z,1010.50
2018-05-16T11:21:33.439Z,1010.49
2018-05-16T11:22:41.206Z,1010.48
2018-05-16T11:23:11.158Z,1010.47
2018-05-16T11:24:18.920Z,1010.48
2018-05-16T11:24:48.871Z,1010.52
2018-05-16T11:25:56.633Z,1010.50
2018-05-16T11:26:26.584Z,1010.56
2018-05-16T11:27:34.358Z,1010.52
2018-05-16T11:28:04.303Z,1010.53
2018-05-16T11:29:12.061Z,1010.48
2018-05-16T11:29:42.021Z,1010.51
2018-05-16T11:30:49.779Z,1010.51
2018-05-16T11:31:19.737Z,1010.45
2018-05-16T11:32:27.515Z,1010.45
2018-05-16T11:32:57.438Z,1010.47
2018-05-16T11:34:05.209Z,1010.49
2018-05-16T11:34:35.149Z,1010.44
2018-05-16T11:35:42.921Z,1010.47
2018-05-16T11:36:12.870Z,1010.48
2018-05-16T11:37:20.651Z,1010.54
2018-05-16T11:37:50.607Z,1010.52
2018-05-16T11:38:58.387Z,1010.52
2018-05-16T11:39:28.327Z,1010.52
2018-05-16T11:40:36.084Z,1010.55
2018-05-16T11:41:06.043Z,1010.53
2018-05-16T11:42:13.803Z,1010.45
2018-05-16T11:42:43.751Z,1010.51
2018-05-16T11:43:51.571Z,1010.51
2018-05-16T11:44:21.501Z,1010.50
2018-05-16T11:45:29.270Z,1010.54
2018-05-16T11:45:59.456Z,1010.48
2018-05-16T11:47:27.956Z,1010.54
2018-05-16T11:48:14.762Z,1010.52
2018-05-16T11:48:44.701Z,1010.52
2018-05-16T11:49:52.458Z,1010.52
2018-05-16T11:50:22.413Z,1010.53
2018-05-16T11:51:30.173Z,1010.50
2018-05-16T11:52:00.128Z,1010.51
2018-05-16T11:53:07.897Z,1010.50
2018-05-16T11:53:37.843Z,1010.46
2018-05-16T11:54:45.620Z,1010.56
2018-05-16T11:55:15.547Z,1010.56
2018-05-16T11:56:23.414Z,1010.52
2018-05-16T11:56:53.361Z,1010.51
2018-05-16T11:58:01.122Z,1010.48
2018-05-16T11:58:31.082Z,1010.50
2018-05-16T11:59:38.859Z,1010.48
2018-05-16T12:00:08.796Z,1010.48
2018-05-16T12:01:16.555Z,1010.48
2018-05-16T12:01:46.503Z,1010.51
2018-05-16T12:02:54.374Z,1010.55
2018-05-16T12:03:24.212Z,1010.59
2018-05-16T12:04:31.982Z,1010.57
2018-05-16T12:05:01.936Z,1010.54
2018-05-16T12:06:09.724Z,1010.51
2018-05-16T12:06:39.647Z,1010.47
2018-05-16T12:07:47.413Z,1010.48
2018-05-16T12:08:17.361Z,1010.51
2018-05-16T12:09:25.122Z,1010.53
2018-05-16T12:09:55.073Z,1010.46
2018-05-16T12:11:02.839Z,1010.51
2018-05-16T12:11:32.781Z,1010.56
2018-05-16T12:12:40.562Z,1010.50
2018-05-16T12:13:10.494Z,1010.48
2018-05-16T12:14:18.261Z,1010.46
2018-05-16T12:14:48.240Z,1010.49
2018-05-16T12:15:55.969Z,1010.46
2018-05-16T12:16:25.932Z,1010.53
2018-05-16T12:17:33.716Z,1010.50
2018-05-16T12:18:03.646Z,1010.48
2018-05-16T12:19:11.414Z,1010.57
2018-05-16T12:19:41.365Z,1010.64
2018-05-16T12:20:49.129Z,1010.57
2018-05-16T12:21:19.082Z,1010.60
2018-05-16T12:22:26.867Z,1010.52
2018-05-16T12:22:56.791Z,1010.64
2018-05-16T12:24:04.548Z,1010.53
2018-05-16T12:24:34.510Z,1010.62
2018-05-16T12:25:42.276Z,1010.56
2018-05-16T12:26:12.223Z,1010.52
2018-05-16T12:27:19.979Z,1010.55
2018-05-16T12:27:49.937Z,1010.53
2018-05-16T12:28:57.726Z,1010.62
2018-05-16T12:29:27.650Z,1010.60
2018-05-16T12:30:35.416Z,1010.64
2018-05-16T12:31:05.363Z,1010.65
2018-05-16T12:32:13.129Z,1010.61
2018-05-16T12:32:43.085Z,1010.70
2018-05-16T12:33:50.866Z,1010.55
2018-05-16T12:34:20.788Z,1010.64
2018-05-16T12:35:28.560Z,1010.60
2018-05-16T12:35:58.503Z,1010.61
2018-05-16T12:37:06.267Z,1010.63
2018-05-16T12:37:36.220Z,1010.61
2018-05-16T12:38:43.981Z,1010.62
2018-05-16T12:39:13.941Z,1010.57
2018-05-16T12:40:21.717Z,1010.57
2018-05-16T12:40:51.644Z,1010.62
2018-05-16T12:41:59.403Z,1010.59
2018-05-16T12:42:29.362Z,1010.55
2018-05-16T12:43:37.124Z,1010.52
2018-05-16T12:44:07.065Z,1010.53
2018-05-16T12:45:14.859Z,1010.57
2018-05-16T12:45:44.785Z,1010.52
2018-05-16T12:46:52.551Z,1010.50
2018-05-16T12:47:22.505Z,1010.49
2018-05-16T12:48:30.280Z,1010.53
2018-05-16T12:49:00.239Z,1010.50
2018-05-16T12:50:08.001Z,1010.46
2018-05-16T12:50:37.949Z,1010.46
2018-05-16T12:51:45.724Z,1010.43
2018-05-16T12:52:15.657Z,1010.42
2018-05-16T12:53:23.421Z,1010.42
2018-05-16T12:53:53.377Z,1010.42
2018-05-16T12:55:01.135Z,1010.39
2018-05-16T12:55:31.090Z,1010.39
2018-05-16T12:56:38.863Z,1010.41
2018-05-16T12:57:08.810Z,1010.42
2018-05-16T12:58:16.565Z,1010.37
2018-05-16T12:58:46.519Z,1010.41
2018-05-16T12:59:54.294Z,1010.38
2018-05-16T13:00:24.241Z,1010.37
2018-05-16T13:01:32.048Z,1010.39
2018-05-16T13:02:01.952Z,1010.38
2018-05-16T13:03:09.742Z,1010.39
2018-05-16T13:03:39.684Z,1010.37
2018-05-16T13:04:47.434Z,1010.36
2018-05-16T13:05:17.378Z,1010.37
2018-05-16T13:06:25.193Z,1010.36
2018-05-16T13:06:55.107Z,1010.39
2018-05-16T13:08:02.909Z,1010.36
2018-05-16T13:08:32.837Z,1010.31
2018-05-16T13:09:40.598Z,1010.33
2018-05-16T13:10:10.564Z,1010.32
2018-05-16T13:11:18.342Z,1010.31
2018-05-16T13:11:48.263Z,1010.30
2018-05-16T13:12:56.100Z,1010.27
2018-05-16T13:13:25.990Z,1010.30
2018-05-16T13:14:33.754Z,1010.26
2018-05-16T13:15:03.701Z,1010.24
2018-05-16T13:16:11.475Z,1010.22
2018-05-16T13:16:41.421Z,1010.18
2018-05-16T13:17:49.207Z,1010.18
2018-05-16T13:18:19.175Z,1010.20
2018-05-16T13:19:27.400Z,1010.17
2018-05-16T13:19:57.342Z,1010.16
2018-05-16T13:21:05.199Z,1010.19
2018-05-16T13:21:35.161Z,1010.22
2018-05-16T13:22:42.874Z,1010.14
2018-05-16T13:23:12.776Z,1010.20
2018-05-16T13:24:20.533Z,1010.13
2018-05-16T13:24:50.492Z,1010.15
2018-05-16T13:25:58.318Z,1010.17
2018-05-16T13:26:28.220Z,1010.15
2018-05-16T13:27:35.992Z,1010.14
2018-05-16T13:28:05.934Z,1010.12
2018-05-16T13:29:13.720Z,1010.09
2018-05-16T13:29:43.651Z,1010.10
2018-05-16T13:30:51.425Z,1010.11
2018-05-16T13:31:21.403Z,1010.14
2018-05-16T13:32:29.132Z,1010.13
2018-05-16T13:32:59.117Z,1010.15
2018-05-16T13:34:07.099Z,1010.11
2018-05-16T13:34:36.800Z,1010.09
2018-05-16T13:35:44.623Z,1010.07
2018-05-16T13:36:14.607Z,1010.05
2018-05-16T13:37:22.275Z,1010.04
2018-05-16T13:37:52.221Z,1010.04
2018-05-16T13:39:00.097Z,1009.97
2018-05-16T13:39:29.998Z,1009.96
2018-05-16T13:40:37.745Z,1009.95
2018-05-16T13:41:07.703Z,1009.91
2018-05-16T13:42:15.456Z,1009.89
2018-05-16T13:42:45.404Z,1009.89
2018-05-16T13:43:53.139Z,1009.84
2018-05-16T13:44:23.087Z,1009.83
2018-05-16T13:45:31.032Z,1009.87
2018-05-16T13:46:00.803Z,1009.86
2018-05-16T13:47:08.629Z,1009.81
2018-05-16T13:47:39.647Z,1009.78
2018-05-16T13:48:46.648Z,1009.73
2018-05-16T13:49:16.478Z,1009.71
2018-05-16T13:50:24.238Z,1009.75
2018-05-16T13:50:54.106Z,1009.70
2018-05-16T13:52:02.356Z,1009.73
2018-05-16T13:52:32.273Z,1009.74
2018-05-16T13:53:40.018Z,1009.74
2018-05-16T13:54:09.947Z,1009.70
2018-05-16T13:55:18.094Z,1009.67
2018-05-16T13:55:47.683Z,1009.66
2018-05-16T13:56:55.460Z,1009.63
2018-05-16T13:57:25.394Z,1009.64
2018-05-16T13:58:33.160Z,1009.61
2018-05-16T13:59:03.110Z,1009.66
2018-05-16T14:00:10.968Z,1009.68
2018-05-16T14:00:40.839Z,1009.72
2018-05-16T14:01:48.615Z,1009.72
2018-05-16T14:02:18.554Z,1009.72
2018-05-16T14:03:26.316Z,1009.76
2018-05-16T14:03:56.267Z,1009.75
2018-05-16T14:05:04.027Z,1009.75
2018-05-16T14:05:33.989Z,1009.78
2018-05-16T14:06:41.812Z,1009.73
2018-05-16T14:07:11.750Z,1009.67
2018-05-16T14:08:19.502Z,1009.70
2018-05-16T14:08:49.454Z,1009.70
2018-05-16T14:09:57.869Z,1009.67
2018-05-16T14:10:27.165Z,1009.71
2018-05-16T14:11:34.952Z,1009.71
2018-05-16T14:12:04.875Z,1009.67
2018-05-16T14:13:12.763Z,1009.65
2018-05-16T14:13:42.588Z,1009.61
2018-05-16T14:14:50.358Z,1009.65
2018-05-16T14:15:20.326Z,1009.68
2018-05-16T14:16:28.073Z,1009.65
2018-05-16T14:16:58.021Z,1009.63
2018-05-16T14:18:05.808Z,1009.65
2018-05-16T14:18:35.730Z,1009.70
2018-05-16T14:19:43.503Z,1009.66
2018-05-16T14:20:13.508Z,1009.63
2018-05-16T14:21:21.209Z,1009.59